PWSweather.com
Personal Weather Stations
Station Observations
SWHWX01
St AppolinardFR 38160

St AppolinardFR 38160

Lat: 45.191, Lon: 5.268

Elevation: 1460

Station Type: Davis Vantage Pro2 Plus

Latest ConditionsUpdated 6:30:03 PM GMT+01:01 Saturday, Oct 21, 2017
Currently Today's Max Today's Min Today's Average
Temperature 53.8°F12.1°C 70.3°F21.3°C 53.8°F12.1°C 63.1°F17.3°C
Dew Point 50.6°F10.3°C 58.8°F14.9°C 50.6°F10.3°C 57.0°F13.9°C
Winds 15.1 mph NW24.3 kmh NW 15.1 mph NW24.3 kmh NW - 5.6 mph 9.0 kmh
Wind Gusts 23.0 mph37.0 kmh 23.0 mph37.0 kmh - -
Humidity 89% 95% 62% 82%
Pressure 30.08 in1018.6 mb 30.11 in1019.6 mb 30.02 in1016.6 mb -
Precipitation - 0.14 in3.6 mm - -
Hour Temp Dew Point Humidity Winds Wind Gusts Pressure Precip Precip Rate Daily Precip Total
06:30 PM 53.8°F12.1°C 50.6°F10.3°C 89% 15.1 mph NW24.3 kmh NW 23.0 mph37.0 kmh 30.08 in1018.6 mb - 0.14 in3.6 mm 0.14 in3.6 mm
06:00 PM 59.7°F15.4°C 53.5°F11.9°C 80% 11.1 mph WNW17.9 kmh WNW 23.0 mph37.0 kmh 30.05 in1017.6 mb - 0.00 in0.0 mm 0.00 in0.0 mm
05:30 PM 66.4°F19.1°C 55.9°F13.3°C 69% 3.0 mph SSW4.8 kmh SSW 10.0 mph16.1 kmh 30.02 in1016.6 mb - 0.00 in0.0 mm 0.00 in0.0 mm
05:00 PM 66.9°F19.4°C 55.6°F13.1°C 67% 6.4 mph SW10.3 kmh SW 9.0 mph14.5 kmh 30.03 in1016.9 mb - 0.00 in0.0 mm 0.00 in0.0 mm
04:30 PM 68.1°F20.1°C 55.5°F13.1°C 64% 4.8 mph WSW7.7 kmh WSW 10.0 mph16.1 kmh 30.03 in1016.9 mb - 0.00 in0.0 mm 0.00 in0.0 mm
04:00 PM 69.0°F20.6°C 55.4°F13.0°C 62% 4.3 mph SW6.9 kmh SW 6.0 mph9.7 kmh 30.03 in1016.9 mb - 0.00 in0.0 mm 0.00 in0.0 mm
03:30 PM 68.8°F20.4°C 55.2°F12.9°C 62% 7.8 mph SW12.6 kmh SW 13.0 mph20.9 kmh 30.03 in1016.9 mb - 0.00 in0.0 mm 0.00 in0.0 mm
03:00 PM 70.2°F21.2°C 56.6°F13.7°C 62% 5.6 mph SW9.0 kmh SW 11.0 mph17.7 kmh 30.03 in1016.9 mb - 0.00 in0.0 mm 0.00 in0.0 mm
02:30 PM 70.3°F21.3°C 56.7°F13.7°C 62% 7.2 mph SSW11.6 kmh SSW 10.0 mph16.1 kmh 30.04 in1017.3 mb - 0.00 in0.0 mm 0.00 in0.0 mm
02:00 PM 69.9°F21.1°C 56.7°F13.7°C 63% 5.2 mph SW8.4 kmh SW 7.0 mph11.3 kmh 30.05 in1017.6 mb - 0.00 in0.0 mm 0.00 in0.0 mm
01:30 PM 69.0°F20.6°C 56.4°F13.6°C 64% 5.5 mph SSW8.9 kmh SSW 8.0 mph12.9 kmh 30.06 in1017.9 mb - 0.00 in0.0 mm 0.00 in0.0 mm
01:00 PM 69.0°F20.6°C 57.1°F13.9°C 66% 3.4 mph S5.5 kmh S 7.0 mph11.3 kmh 30.07 in1018.3 mb - 0.00 in0.0 mm 0.00 in0.0 mm
12:30 PM 69.2°F20.7°C 56.5°F13.6°C 64% 4.7 mph SW7.6 kmh SW 10.0 mph16.1 kmh 30.08 in1018.6 mb - 0.00 in0.0 mm 0.00 in0.0 mm
12:00 PM 68.9°F20.5°C 57.9°F14.4°C 68% 5.1 mph WSW8.2 kmh WSW 10.0 mph16.1 kmh 30.09 in1019.0 mb - 0.00 in0.0 mm 0.00 in0.0 mm
11:30 AM 68.3°F20.2°C 58.1°F14.5°C 70% 3.6 mph SSW5.8 kmh SSW 9.0 mph14.5 kmh 30.09 in1019.0 mb - 0.00 in0.0 mm 0.00 in0.0 mm
11:00 AM 65.8°F18.8°C 58.4°F14.7°C 77% 6.3 mph SW10.1 kmh SW 7.0 mph11.3 kmh 30.10 in1019.3 mb - 0.00 in0.0 mm 0.00 in0.0 mm
10:30 AM 65.2°F18.4°C 58.5°F14.7°C 79% 5.7 mph W9.2 kmh W 9.0 mph14.5 kmh 30.11 in1019.6 mb - 0.00 in0.0 mm 0.00 in0.0 mm
10:00 AM 63.4°F17.4°C 58.8°F14.9°C 85% 3.7 mph WSW6.0 kmh WSW 6.0 mph9.7 kmh 30.10 in1019.3 mb - 0.00 in0.0 mm 0.00 in0.0 mm
09:30 AM 62.0°F16.7°C 58.7°F14.8°C 89% 3.6 mph WSW5.8 kmh WSW 6.0 mph9.7 kmh 30.10 in1019.3 mb - 0.00 in0.0 mm 0.00 in0.0 mm
09:00 AM 60.3°F15.7°C 58.3°F14.6°C 93% 4.9 mph WSW7.9 kmh WSW 8.0 mph12.9 kmh 30.10 in1019.3 mb - 0.00 in0.0 mm 0.00 in0.0 mm
08:30 AM 59.4°F15.2°C 57.7°F14.3°C 94% 5.5 mph WSW8.9 kmh WSW 8.0 mph12.9 kmh 30.10 in1019.3 mb - 0.00 in0.0 mm 0.00 in0.0 mm
08:00 AM 59.4°F15.2°C 58.0°F14.4°C 95% 7.9 mph SW12.7 kmh SW 13.0 mph20.9 kmh 30.10 in1019.3 mb - 0.00 in0.0 mm 0.00 in0.0 mm
07:30 AM 59.3°F15.2°C 57.9°F14.4°C 95% 3.4 mph W5.5 kmh W 10.0 mph16.1 kmh 30.09 in1019.0 mb - 0.00 in0.0 mm 0.00 in0.0 mm
07:00 AM 59.2°F15.1°C 57.5°F14.2°C 94% 4.2 mph SW6.8 kmh SW 7.0 mph11.3 kmh 30.08 in1018.6 mb - 0.00 in0.0 mm 0.00 in0.0 mm
06:30 AM 59.3°F15.2°C 57.6°F14.2°C 94% 5.8 mph SW9.3 kmh SW 8.0 mph12.9 kmh 30.09 in1019.0 mb - 0.00 in0.0 mm 0.00 in0.0 mm
06:00 AM 59.5°F15.3°C 57.8°F14.3°C 94% 5.0 mph SW8.0 kmh SW 6.0 mph9.7 kmh 30.08 in1018.6 mb - 0.00 in0.0 mm 0.00 in0.0 mm
05:30 AM 59.4°F15.2°C 57.7°F14.3°C 94% 3.9 mph WSW6.3 kmh WSW 11.0 mph17.7 kmh 30.08 in1018.6 mb - 0.00 in0.0 mm 0.00 in0.0 mm
05:00 AM 59.4°F15.2°C 57.7°F14.3°C 94% 6.1 mph WSW9.8 kmh WSW 6.0 mph9.7 kmh 30.07 in1018.3 mb - 0.00 in0.0 mm 0.00 in0.0 mm
04:30 AM 59.3°F15.2°C 57.6°F14.2°C 94% 5.6 mph WSW9.0 kmh WSW 8.0 mph12.9 kmh 30.07 in1018.3 mb - 0.00 in0.0 mm 0.00 in0.0 mm
04:00 AM 59.5°F15.3°C 57.8°F14.3°C 94% 5.0 mph SW8.0 kmh SW 7.0 mph11.3 kmh 30.07 in1018.3 mb - 0.00 in0.0 mm 0.00 in0.0 mm
03:30 AM 59.6°F15.3°C 57.6°F14.2°C 93% 4.6 mph WSW7.4 kmh WSW 7.0 mph11.3 kmh 30.07 in1018.3 mb - 0.00 in0.0 mm 0.00 in0.0 mm
03:00 AM 59.6°F15.3°C 57.6°F14.2°C 93% 4.5 mph WSW7.2 kmh WSW 7.0 mph11.3 kmh 30.09 in1019.0 mb - 0.00 in0.0 mm 0.00 in0.0 mm
02:30 AM 59.6°F15.3°C 57.6°F14.2°C 93% 4.8 mph SW7.7 kmh SW 9.0 mph14.5 kmh 30.09 in1019.0 mb - 0.00 in0.0 mm 0.00 in0.0 mm
02:00 AM 59.8°F15.4°C 57.8°F14.3°C 93% 5.0 mph SW8.0 kmh SW 8.0 mph12.9 kmh 30.09 in1019.0 mb - 0.00 in0.0 mm 0.00 in0.0 mm
01:30 AM 59.9°F15.5°C 57.6°F14.2°C 92% 6.9 mph SW11.1 kmh SW 12.0 mph19.3 kmh 30.09 in1019.0 mb - 0.00 in0.0 mm 0.00 in0.0 mm
01:00 AM 59.9°F15.5°C 57.3°F14.1°C 91% 8.4 mph WSW13.5 kmh WSW 12.0 mph19.3 kmh 30.09 in1019.0 mb - 0.00 in0.0 mm 0.00 in0.0 mm
12:30 AM 60.1°F15.6°C 56.9°F13.8°C 89% 7.0 mph SW11.3 kmh SW 9.0 mph14.5 kmh 30.09 in1019.0 mb - 0.00 in0.0 mm 0.00 in0.0 mm
12:00 AM 60.3°F15.7°C 56.4°F13.6°C 87% 3.1 mph SW5.0 kmh SW 6.0 mph9.7 kmh 30.09 in1019.0 mb - 0.00 in0.0 mm 0.00 in0.0 mm